Center Point, AL (35215)

6:41 AM CST on March 06, 2015 (GMT -0600)
Paradise Valley | Change Station
CLOSE
Current Station
Personal Weather Station
Location: Chalkville, AL
Elevation: 856 ft
Nearby Weather Stations

Elev 856 ft 33.67 °N, 86.65 °W | Updated 0 second ago

Clear
Clear
17.0 °F
Feels Like 17 °F
N
0.0
Wind Variable Wind from North
Gusts 3.0 mph

Today
High -- | Low -- °F
--% Chance of Precip.
Yesterday
High -- | Low -- °F
Precip. -- in
6:09 AM 5:47 PM
Waxing Gibbous, 99% visible
Pressure 30.47 in
Visibility 10.0 miles
Clouds Few 1200 ft
Windchill 17 °F
Dew Point 16 °F
Humidity 94%
Rainfall in
Snow Depth Not available.
UV 0 out of 12
Pollen 7.10 out of 12
Air Quality Not available.
Flu Activity Not available.
METAR KBHM 061153Z 35006KT 10SM FEW012 M08/M10 A3047

More Conditions Fewer Conditions

Pressure 30.47 in
Visibility 10.0 miles
Clouds Few 1200 ft
Windchill 17 °F
Dew Point 16 °F
Humidity 94%
Rainfall in
Snow Depth Not available.
UV 0 out of 12
Pollen 7.10 out of 12
Air Quality Not available.
Flu Activity Not available.
METAR KBHM 061153Z 35006KT 10SM FEW012 M08/M10 A3047

More Conditions Fewer Conditions

10-Day Weather Forecast

Almanac

Astronomy

Mar. 06, 2015 Rise Set
Actual Time
Civil Twilight
Nautical Twilight
Astronomical Twilight
Moon
Length of Visible Light
Length of Day
Tomorrow will be .
, % of the Moon is Illuminated

Today's Extremes

State Highs State Lows

Community

WunderPhotos

Upload Photos

1,803,246 photos uploaded!

WunderBlogs® & News

Nearby

Air Quality

  Air Quality AQ Index Pollutant
Not available.

Snow Depth

Station Depth Elevation

Earthquake Activity

City Distance Mag. Time & Date
Minimum magnitude displayed is 2.5.

Coastal Water Temperatures

Place Temperature

Nearby Weather Stations